sensor_id;sensor_type;location;lat;lon;timestamp;P1;durP1;ratioP1;P2;durP2;ratioP2
29416;SDS011;28421;51.030;4.006;2022-12-17T06:02:56;33.90;;;18.58;;
29416;SDS011;28421;51.030;4.006;2022-12-17T06:05:41;31.40;;;19.58;;
29416;SDS011;28421;51.030;4.006;2022-12-17T06:08:25;24.60;;;14.27;;
29416;SDS011;28421;51.030;4.006;2022-12-17T06:11:09;31.75;;;17.05;;
29416;SDS011;28421;51.030;4.006;2022-12-17T06:13:53;33.35;;;18.40;;
29416;SDS011;28421;51.030;4.006;2022-12-17T06:16:37;44.70;;;21.20;;
29416;SDS011;28421;51.030;4.006;2022-12-17T06:19:21;32.25;;;18.23;;
29416;SDS011;28421;51.030;4.006;2022-12-17T06:22:05;33.55;;;18.90;;
29416;SDS011;28421;51.030;4.006;2022-12-17T06:24:49;34.17;;;20.33;;
29416;SDS011;28421;51.030;4.006;2022-12-17T06:27:33;28.42;;;16.98;;
29416;SDS011;28421;51.030;4.006;2022-12-17T06:30:16;23.98;;;14.20;;
29416;SDS011;28421;51.030;4.006;2022-12-17T06:33:07;35.15;;;17.17;;
29416;SDS011;28421;51.030;4.006;2022-12-17T06:35:54;35.40;;;20.23;;
29416;SDS011;28421;51.030;4.006;2022-12-17T06:38:39;39.20;;;19.30;;
29416;SDS011;28421;51.030;4.006;2022-12-17T06:41:23;33.08;;;18.73;;
29416;SDS011;28421;51.030;4.006;2022-12-17T06:44:07;29.23;;;17.77;;
29416;SDS011;28421;51.030;4.006;2022-12-17T06:46:51;31.60;;;17.48;;
29416;SDS011;28421;51.030;4.006;2022-12-17T06:49:35;36.72;;;18.50;;
29416;SDS011;28421;51.030;4.006;2022-12-17T06:52:19;45.25;;;20.75;;
29416;SDS011;28421;51.030;4.006;2022-12-17T06:55:03;32.50;;;18.85;;
29416;SDS011;28421;51.030;4.006;2022-12-17T07:00:37;36.75;;;17.98;;
29416;SDS011;28421;51.030;4.006;2022-12-17T07:03:21;42.83;;;18.33;;
29416;SDS011;28421;51.030;4.006;2022-12-17T07:06:05;39.90;;;20.70;;
29416;SDS011;28421;51.030;4.006;2022-12-17T07:08:49;46.22;;;19.42;;
29416;SDS011;28421;51.030;4.006;2022-12-17T07:11:32;34.40;;;18.13;;
29416;SDS011;28421;51.030;4.006;2022-12-17T07:14:16;35.97;;;20.85;;
29416;SDS011;28421;51.030;4.006;2022-12-17T07:17:00;31.08;;;16.05;;
29416;SDS011;28421;51.030;4.006;2022-12-17T07:19:44;32.53;;;17.40;;
29416;SDS011;28421;51.030;4.006;2022-12-17T07:22:28;39.33;;;18.92;;
29416;SDS011;28421;51.030;4.006;2022-12-17T07:25:12;25.58;;;14.43;;
29416;SDS011;28421;51.030;4.006;2022-12-17T07:27:56;42.75;;;22.02;;
29416;SDS011;28421;51.030;4.006;2022-12-17T07:30:40;35.58;;;20.25;;
29416;SDS011;28421;51.030;4.006;2022-12-17T07:33:24;44.38;;;21.42;;
29416;SDS011;28421;51.030;4.006;2022-12-17T07:38:53;37.60;;;20.00;;
29416;SDS011;28421;51.030;4.006;2022-12-17T07:41:37;31.90;;;15.40;;
29416;SDS011;28421;51.030;4.006;2022-12-17T07:44:21;42.00;;;21.15;;
29416;SDS011;28421;51.030;4.006;2022-12-17T07:47:04;37.95;;;22.10;;
29416;SDS011;28421;51.030;4.006;2022-12-17T07:49:48;41.78;;;22.45;;
29416;SDS011;28421;51.030;4.006;2022-12-17T07:52:32;42.22;;;21.90;;
29416;SDS011;28421;51.030;4.006;2022-12-17T07:55:16;37.20;;;19.73;;
29416;SDS011;28421;51.030;4.006;2022-12-17T07:58:00;41.75;;;21.95;;
29416;SDS011;28421;51.030;4.006;2022-12-17T08:00:45;50.80;;;23.92;;
29416;SDS011;28421;51.030;4.006;2022-12-17T08:03:30;49.78;;;22.52;;
29416;SDS011;28421;51.030;4.006;2022-12-17T08:08:58;35.28;;;18.85;;
29416;SDS011;28421;51.030;4.006;2022-12-17T08:11:42;44.60;;;21.65;;
29416;SDS011;28421;51.030;4.006;2022-12-17T08:14:25;44.97;;;21.80;;
29416;SDS011;28421;51.030;4.006;2022-12-17T08:17:09;59.88;;;24.77;;
29416;SDS011;28421;51.030;4.006;2022-12-17T08:19:53;49.08;;;24.50;;
29416;SDS011;28421;51.030;4.006;2022-12-17T08:22:37;42.90;;;22.75;;
29416;SDS011;28421;51.030;4.006;2022-12-17T08:25:21;44.17;;;21.55;;
29416;SDS011;28421;51.030;4.006;2022-12-17T08:28:06;69.50;;;25.23;;
29416;SDS011;28421;51.030;4.006;2022-12-17T08:30:51;90.53;;;36.83;;
29416;SDS011;28421;51.030;4.006;2022-12-17T08:33:35;97.13;;;38.00;;
29416;SDS011;28421;51.030;4.006;2022-12-17T08:36:19;65.75;;;29.42;;
29416;SDS011;28421;51.030;4.006;2022-12-17T08:39:03;42.77;;;21.83;;
29416;SDS011;28421;51.030;4.006;2022-12-17T08:41:47;48.00;;;25.40;;
29416;SDS011;28421;51.030;4.006;2022-12-17T08:44:31;51.17;;;24.50;;
29416;SDS011;28421;51.030;4.006;2022-12-17T08:47:15;44.17;;;21.27;;
29416;SDS011;28421;51.030;4.006;2022-12-17T08:50:00;49.60;;;26.08;;
29416;SDS011;28421;51.030;4.006;2022-12-17T08:52:44;43.08;;;20.50;;
29416;SDS011;28421;51.030;4.006;2022-12-17T08:55:28;49.78;;;27.45;;
29416;SDS011;28421;51.030;4.006;2022-12-17T08:58:11;42.83;;;25.80;;
29416;SDS011;28421;51.030;4.006;2022-12-17T09:00:58;48.65;;;25.27;;
29416;SDS011;28421;51.030;4.006;2022-12-17T09:03:46;63.83;;;26.90;;
29416;SDS011;28421;51.030;4.006;2022-12-17T09:06:31;56.90;;;26.92;;
29416;SDS011;28421;51.030;4.006;2022-12-17T09:09:15;51.85;;;25.98;;
29416;SDS011;28421;51.030;4.006;2022-12-17T09:11:59;42.92;;;25.20;;
29416;SDS011;28421;51.030;4.006;2022-12-17T09:14:43;50.90;;;28.75;;
29416;SDS011;28421;51.030;4.006;2022-12-17T09:17:27;41.08;;;21.40;;
29416;SDS011;28421;51.030;4.006;2022-12-17T09:20:11;59.38;;;26.40;;
29416;SDS011;28421;51.030;4.006;2022-12-17T09:22:56;59.35;;;27.58;;
29416;SDS011;28421;51.030;4.006;2022-12-17T09:25:39;41.67;;;20.52;;
29416;SDS011;28421;51.030;4.006;2022-12-17T09:28:24;56.75;;;27.90;;
29416;SDS011;28421;51.030;4.006;2022-12-17T09:31:07;57.97;;;28.67;;
29416;SDS011;28421;51.030;4.006;2022-12-17T09:33:51;61.72;;;29.40;;
29416;SDS011;28421;51.030;4.006;2022-12-17T09:36:35;50.53;;;28.03;;
29416;SDS011;28421;51.030;4.006;2022-12-17T09:39:19;50.33;;;29.17;;
29416;SDS011;28421;51.030;4.006;2022-12-17T09:44:52;60.55;;;30.52;;
29416;SDS011;28421;51.030;4.006;2022-12-17T09:50:33;70.38;;;31.70;;
29416;SDS011;28421;51.030;4.006;2022-12-17T09:56:27;58.55;;;28.27;;
29416;SDS011;28421;51.030;4.006;2022-12-17T09:59:19;60.28;;;30.52;;
29416;SDS011;28421;51.030;4.006;2022-12-17T10:02:12;58.20;;;28.23;;
29416;SDS011;28421;51.030;4.006;2022-12-17T10:05:01;56.67;;;29.80;;
29416;SDS011;28421;51.030;4.006;2022-12-17T10:07:48;69.38;;;32.30;;
29416;SDS011;28421;51.030;4.006;2022-12-17T10:10:33;60.38;;;31.88;;
29416;SDS011;28421;51.030;4.006;2022-12-17T10:13:21;62.13;;;31.70;;
29416;SDS011;28421;51.030;4.006;2022-12-17T10:19:14;63.95;;;30.95;;
29416;SDS011;28421;51.030;4.006;2022-12-17T10:22:12;61.03;;;31.45;;
29416;SDS011;28421;51.030;4.006;2022-12-17T10:25:01;60.97;;;34.22;;
29416;SDS011;28421;51.030;4.006;2022-12-17T10:28:08;56.65;;;31.08;;
29416;SDS011;28421;51.030;4.006;2022-12-17T10:30:54;61.15;;;32.30;;
29416;SDS011;28421;51.030;4.006;2022-12-17T10:33:39;64.25;;;32.53;;
29416;SDS011;28421;51.030;4.006;2022-12-17T10:36:24;65.97;;;33.75;;
29416;SDS011;28421;51.030;4.006;2022-12-17T10:39:14;62.83;;;34.40;;
29416;SDS011;28421;51.030;4.006;2022-12-17T10:42:00;73.82;;;34.55;;
29416;SDS011;28421;51.030;4.006;2022-12-17T10:44:44;52.90;;;24.10;;
29416;SDS011;28421;51.030;4.006;2022-12-17T10:47:29;60.60;;;30.30;;
29416;SDS011;28421;51.030;4.006;2022-12-17T10:50:14;63.80;;;35.22;;
29416;SDS011;28421;51.030;4.006;2022-12-17T10:53:00;61.00;;;33.08;;
29416;SDS011;28421;51.030;4.006;2022-12-17T10:55:49;75.72;;;35.67;;
29416;SDS011;28421;51.030;4.006;2022-12-17T10:58:41;68.30;;;35.25;;
29416;SDS011;28421;51.030;4.006;2022-12-17T11:01:30;61.58;;;33.72;;
29416;SDS011;28421;51.030;4.006;2022-12-17T11:04:21;66.32;;;36.22;;
29416;SDS011;28421;51.030;4.006;2022-12-17T11:07:11;60.38;;;33.42;;
29416;SDS011;28421;51.030;4.006;2022-12-17T11:10:00;64.72;;;35.97;;
29416;SDS011;28421;51.030;4.006;2022-12-17T11:12:48;57.63;;;34.38;;
29416;SDS011;28421;51.030;4.006;2022-12-17T11:18:29;61.67;;;31.95;;
29416;SDS011;28421;51.030;4.006;2022-12-17T11:21:20;67.28;;;32.63;;
29416;SDS011;28421;51.030;4.006;2022-12-17T11:27:33;60.50;;;33.72;;
29416;SDS011;28421;51.030;4.006;2022-12-17T11:30:22;65.70;;;32.47;;
29416;SDS011;28421;51.030;4.006;2022-12-17T11:36:10;62.63;;;33.85;;
29416;SDS011;28421;51.030;4.006;2022-12-17T11:38:59;69.72;;;33.88;;
29416;SDS011;28421;51.030;4.006;2022-12-17T11:41:58;52.95;;;30.25;;
29416;SDS011;28421;51.030;4.006;2022-12-17T11:50:40;58.63;;;32.20;;
29416;SDS011;28421;51.030;4.006;2022-12-17T11:57:24;51.00;;;29.30;;
29416;SDS011;28421;51.030;4.006;2022-12-17T12:03:09;61.25;;;29.75;;
29416;SDS011;28421;51.030;4.006;2022-12-17T12:05:59;61.78;;;32.33;;
29416;SDS011;28421;51.030;4.006;2022-12-17T12:15:18;60.83;;;30.85;;
29416;SDS011;28421;51.030;4.006;2022-12-17T12:18:09;49.03;;;28.10;;
29416;SDS011;28421;51.030;4.006;2022-12-17T12:30:33;64.68;;;31.70;;
29416;SDS011;28421;51.030;4.006;2022-12-17T12:36:19;57.60;;;33.42;;
29416;SDS011;28421;51.030;4.006;2022-12-17T12:39:08;57.20;;;30.95;;
29416;SDS011;28421;51.030;4.006;2022-12-17T12:41:57;61.88;;;31.48;;
29416;SDS011;28421;51.030;4.006;2022-12-17T12:44:48;62.88;;;31.10;;
29416;SDS011;28421;51.030;4.006;2022-12-17T12:50:27;68.70;;;34.17;;
29416;SDS011;28421;51.030;4.006;2022-12-17T12:53:20;65.50;;;31.65;;
29416;SDS011;28421;51.030;4.006;2022-12-17T12:56:04;67.40;;;35.65;;
29416;SDS011;28421;51.030;4.006;2022-12-17T12:58:48;69.43;;;34.00;;
29416;SDS011;28421;51.030;4.006;2022-12-17T13:01:33;74.20;;;33.75;;
29416;SDS011;28421;51.030;4.006;2022-12-17T13:07:19;62.20;;;32.38;;
29416;SDS011;28421;51.030;4.006;2022-12-17T13:09:56;63.20;;;32.60;;
29416;SDS011;28421;51.030;4.006;2022-12-17T13:12:27;68.53;;;35.25;;
29416;SDS011;28421;51.030;4.006;2022-12-17T13:20:01;58.60;;;29.23;;
29416;SDS011;28421;51.030;4.006;2022-12-17T13:22:49;67.57;;;35.47;;
29416;SDS011;28421;51.030;4.006;2022-12-17T13:25:29;74.90;;;35.50;;
29416;SDS011;28421;51.030;4.006;2022-12-17T13:27:54;57.35;;;32.55;;
29416;SDS011;28421;51.030;4.006;2022-12-17T13:30:41;69.32;;;32.53;;
29416;SDS011;28421;51.030;4.006;2022-12-17T13:41:32;61.00;;;31.42;;
29416;SDS011;28421;51.030;4.006;2022-12-17T13:44:01;65.93;;;34.47;;
29416;SDS011;28421;51.030;4.006;2022-12-17T13:46:40;68.68;;;34.65;;
29416;SDS011;28421;51.030;4.006;2022-12-17T13:51:44;63.58;;;32.05;;
29416;SDS011;28421;51.030;4.006;2022-12-17T13:54:16;60.38;;;31.77;;
29416;SDS011;28421;51.030;4.006;2022-12-17T13:56:44;62.75;;;33.95;;
29416;SDS011;28421;51.030;4.006;2022-12-17T13:59:16;68.28;;;33.15;;
29416;SDS011;28421;51.030;4.006;2022-12-17T14:01:45;68.57;;;31.23;;
29416;SDS011;28421;51.030;4.006;2022-12-17T14:04:18;63.80;;;31.55;;
29416;SDS011;28421;51.030;4.006;2022-12-17T14:06:45;68.28;;;28.75;;
29416;SDS011;28421;51.030;4.006;2022-12-17T14:09:13;60.17;;;31.35;;
29416;SDS011;28421;51.030;4.006;2022-12-17T14:11:41;66.60;;;34.83;;
29416;SDS011;28421;51.030;4.006;2022-12-17T14:14:33;56.92;;;29.38;;
29416;SDS011;28421;51.030;4.006;2022-12-17T14:17:04;64.45;;;30.35;;
29416;SDS011;28421;51.030;4.006;2022-12-17T14:19:30;56.17;;;31.20;;
29416;SDS011;28421;51.030;4.006;2022-12-17T14:21:56;74.13;;;34.38;;
29416;SDS011;28421;51.030;4.006;2022-12-17T14:24:23;68.60;;;32.80;;
29416;SDS011;28421;51.030;4.006;2022-12-17T14:26:54;63.53;;;30.70;;
29416;SDS011;28421;51.030;4.006;2022-12-17T14:29:22;67.15;;;32.90;;
29416;SDS011;28421;51.030;4.006;2022-12-17T14:31:54;65.07;;;31.60;;
29416;SDS011;28421;51.030;4.006;2022-12-17T14:34:28;59.45;;;29.70;;
29416;SDS011;28421;51.030;4.006;2022-12-17T14:37:12;63.10;;;30.63;;
29416;SDS011;28421;51.030;4.006;2022-12-17T14:39:42;57.83;;;29.30;;
29416;SDS011;28421;51.030;4.006;2022-12-17T14:42:14;65.85;;;31.17;;
29416;SDS011;28421;51.030;4.006;2022-12-17T14:44:57;58.58;;;29.52;;
29416;SDS011;28421;51.030;4.006;2022-12-17T14:47:31;56.45;;;28.88;;
29416;SDS011;28421;51.030;4.006;2022-12-17T14:57:52;61.65;;;28.40;;
29416;SDS011;28421;51.030;4.006;2022-12-17T15:00:31;50.28;;;26.83;;
29416;SDS011;28421;51.030;4.006;2022-12-17T15:02:58;55.80;;;29.05;;
29416;SDS011;28421;51.030;4.006;2022-12-17T15:05:23;57.28;;;27.90;;
29416;SDS011;28421;51.030;4.006;2022-12-17T15:07:49;53.50;;;27.88;;
29416;SDS011;28421;51.030;4.006;2022-12-17T15:10:18;53.80;;;28.88;;
29416;SDS011;28421;51.030;4.006;2022-12-17T15:12:44;53.75;;;27.98;;
29416;SDS011;28421;51.030;4.006;2022-12-17T15:15:13;54.78;;;26.15;;
29416;SDS011;28421;51.030;4.006;2022-12-17T15:17:39;52.55;;;27.15;;
29416;SDS011;28421;51.030;4.006;2022-12-17T15:20:07;52.22;;;26.42;;
29416;SDS011;28421;51.030;4.006;2022-12-17T15:22:43;56.85;;;27.90;;
29416;SDS011;28421;51.030;4.006;2022-12-17T15:25:10;58.38;;;27.48;;
29416;SDS011;28421;51.030;4.006;2022-12-17T15:27:38;49.20;;;26.17;;
29416;SDS011;28421;51.030;4.006;2022-12-17T15:30:03;55.60;;;25.83;;
29416;SDS011;28421;51.030;4.006;2022-12-17T15:32:29;55.78;;;26.58;;
29416;SDS011;28421;51.030;4.006;2022-12-17T15:34:55;50.72;;;25.60;;
29416;SDS011;28421;51.030;4.006;2022-12-17T15:37:20;48.40;;;24.20;;
29416;SDS011;28421;51.030;4.006;2022-12-17T15:39:46;55.00;;;28.25;;
29416;SDS011;28421;51.030;4.006;2022-12-17T15:42:11;52.38;;;25.98;;
29416;SDS011;28421;51.030;4.006;2022-12-17T15:44:55;53.30;;;26.23;;
29416;SDS011;28421;51.030;4.006;2022-12-17T15:47:21;49.92;;;25.35;;
29416;SDS011;28421;51.030;4.006;2022-12-17T15:49:46;47.92;;;24.88;;
29416;SDS011;28421;51.030;4.006;2022-12-17T15:52:11;50.97;;;25.05;;
29416;SDS011;28421;51.030;4.006;2022-12-17T15:54:40;52.97;;;25.35;;
29416;SDS011;28421;51.030;4.006;2022-12-17T15:57:08;52.05;;;23.75;;
29416;SDS011;28421;51.030;4.006;2022-12-17T15:59:34;47.45;;;24.80;;
29416;SDS011;28421;51.030;4.006;2022-12-17T16:02:00;59.80;;;27.15;;
29416;SDS011;28421;51.030;4.006;2022-12-17T16:04:26;53.95;;;26.65;;
29416;SDS011;28421;51.030;4.006;2022-12-17T16:06:52;53.47;;;26.33;;
29416;SDS011;28421;51.030;4.006;2022-12-17T16:09:18;57.92;;;27.10;;
29416;SDS011;28421;51.030;4.006;2022-12-17T16:11:43;50.20;;;25.10;;
29416;SDS011;28421;51.030;4.006;2022-12-17T16:14:09;49.63;;;25.58;;
29416;SDS011;28421;51.030;4.006;2022-12-17T16:16:34;47.70;;;24.17;;
29416;SDS011;28421;51.030;4.006;2022-12-17T16:19:00;50.58;;;24.80;;
29416;SDS011;28421;51.030;4.006;2022-12-17T16:21:26;62.13;;;30.77;;
29416;SDS011;28421;51.030;4.006;2022-12-17T16:23:52;61.25;;;28.73;;
29416;SDS011;28421;51.030;4.006;2022-12-17T16:26:18;57.40;;;26.83;;
29416;SDS011;28421;51.030;4.006;2022-12-17T16:31:41;49.85;;;24.10;;
29416;SDS011;28421;51.030;4.006;2022-12-17T16:34:16;55.20;;;25.60;;
29416;SDS011;28421;51.030;4.006;2022-12-17T16:36:41;57.80;;;27.40;;
29416;SDS011;28421;51.030;4.006;2022-12-17T16:39:07;54.85;;;24.60;;
29416;SDS011;28421;51.030;4.006;2022-12-17T16:41:38;52.30;;;25.15;;
29416;SDS011;28421;51.030;4.006;2022-12-17T16:44:03;60.65;;;26.45;;
29416;SDS011;28421;51.030;4.006;2022-12-17T16:46:30;52.35;;;27.00;;
29416;SDS011;28421;51.030;4.006;2022-12-17T16:48:58;49.97;;;24.25;;
29416;SDS011;28421;51.030;4.006;2022-12-17T16:51:29;54.42;;;22.45;;
29416;SDS011;28421;51.030;4.006;2022-12-17T16:53:55;50.17;;;27.67;;
29416;SDS011;28421;51.030;4.006;2022-12-17T16:56:22;45.53;;;22.00;;
29416;SDS011;28421;51.030;4.006;2022-12-17T16:58:49;49.22;;;23.75;;
29416;SDS011;28421;51.030;4.006;2022-12-17T17:01:22;52.50;;;25.73;;
29416;SDS011;28421;51.030;4.006;2022-12-17T17:03:48;48.65;;;22.77;;
29416;SDS011;28421;51.030;4.006;2022-12-17T17:06:15;45.78;;;22.30;;
29416;SDS011;28421;51.030;4.006;2022-12-17T17:08:41;53.38;;;22.58;;
29416;SDS011;28421;51.030;4.006;2022-12-17T17:11:11;43.45;;;21.38;;
29416;SDS011;28421;51.030;4.006;2022-12-17T17:13:38;43.00;;;21.38;;
29416;SDS011;28421;51.030;4.006;2022-12-17T17:16:05;46.95;;;22.27;;
29416;SDS011;28421;51.030;4.006;2022-12-17T17:18:31;46.55;;;24.05;;
29416;SDS011;28421;51.030;4.006;2022-12-17T17:23:53;41.97;;;21.63;;
29416;SDS011;28421;51.030;4.006;2022-12-17T17:26:24;38.30;;;20.80;;
29416;SDS011;28421;51.030;4.006;2022-12-17T17:28:51;49.97;;;22.45;;
29416;SDS011;28421;51.030;4.006;2022-12-17T17:31:17;47.55;;;23.60;;
29416;SDS011;28421;51.030;4.006;2022-12-17T17:33:46;55.05;;;23.67;;
29416;SDS011;28421;51.030;4.006;2022-12-17T17:36:20;44.22;;;22.38;;
29416;SDS011;28421;51.030;4.006;2022-12-17T17:38:48;53.15;;;23.90;;
29416;SDS011;28421;51.030;4.006;2022-12-17T17:41:15;58.83;;;26.58;;
29416;SDS011;28421;51.030;4.006;2022-12-17T17:43:43;56.33;;;24.58;;
29416;SDS011;28421;51.030;4.006;2022-12-17T17:46:13;49.60;;;24.92;;
29416;SDS011;28421;51.030;4.006;2022-12-17T17:48:40;56.55;;;25.85;;
29416;SDS011;28421;51.030;4.006;2022-12-17T17:51:14;61.17;;;26.17;;
29416;SDS011;28421;51.030;4.006;2022-12-17T17:53:42;61.40;;;27.67;;
29416;SDS011;28421;51.030;4.006;2022-12-17T17:56:12;65.72;;;29.95;;
29416;SDS011;28421;51.030;4.006;2022-12-17T17:58:51;66.07;;;28.13;;
29416;SDS011;28421;51.030;4.006;2022-12-17T18:01:19;57.72;;;29.23;;
29416;SDS011;28421;51.030;4.006;2022-12-17T18:03:50;62.83;;;27.85;;
29416;SDS011;28421;51.030;4.006;2022-12-17T18:06:16;51.88;;;24.83;;
29416;SDS011;28421;51.030;4.006;2022-12-17T18:08:42;57.53;;;24.83;;
29416;SDS011;28421;51.030;4.006;2022-12-17T18:11:08;70.82;;;30.77;;
29416;SDS011;28421;51.030;4.006;2022-12-17T18:13:36;61.35;;;30.00;;
29416;SDS011;28421;51.030;4.006;2022-12-17T18:16:27;65.28;;;30.80;;
29416;SDS011;28421;51.030;4.006;2022-12-17T18:18:56;56.88;;;28.52;;
29416;SDS011;28421;51.030;4.006;2022-12-17T18:21:27;77.40;;;32.47;;
29416;SDS011;28421;51.030;4.006;2022-12-17T18:23:54;64.78;;;31.00;;
29416;SDS011;28421;51.030;4.006;2022-12-17T18:26:21;68.68;;;32.45;;
29416;SDS011;28421;51.030;4.006;2022-12-17T18:28:47;68.93;;;30.17;;
29416;SDS011;28421;51.030;4.006;2022-12-17T18:31:14;62.65;;;30.45;;
29416;SDS011;28421;51.030;4.006;2022-12-17T18:33:43;81.28;;;32.88;;
29416;SDS011;28421;51.030;4.006;2022-12-17T18:36:18;71.20;;;30.65;;
29416;SDS011;28421;51.030;4.006;2022-12-17T18:38:45;70.88;;;28.73;;
29416;SDS011;28421;51.030;4.006;2022-12-17T18:41:16;72.63;;;30.33;;
29416;SDS011;28421;51.030;4.006;2022-12-17T18:44:02;72.18;;;31.90;;
29416;SDS011;28421;51.030;4.006;2022-12-17T18:46:29;67.30;;;30.48;;
29416;SDS011;28421;51.030;4.006;2022-12-17T18:48:56;66.30;;;33.30;;
29416;SDS011;28421;51.030;4.006;2022-12-17T18:51:23;69.85;;;31.42;;
29416;SDS011;28421;51.030;4.006;2022-12-17T18:53:49;66.38;;;28.38;;
29416;SDS011;28421;51.030;4.006;2022-12-17T18:56:15;78.63;;;33.75;;
29416;SDS011;28421;51.030;4.006;2022-12-17T18:58:41;80.05;;;31.27;;
29416;SDS011;28421;51.030;4.006;2022-12-17T19:01:07;74.97;;;31.45;;
29416;SDS011;28421;51.030;4.006;2022-12-17T19:03:42;72.07;;;31.33;;
29416;SDS011;28421;51.030;4.006;2022-12-17T19:06:07;73.07;;;33.00;;
29416;SDS011;28421;51.030;4.006;2022-12-17T19:08:33;70.30;;;30.58;;
29416;SDS011;28421;51.030;4.006;2022-12-17T19:11:08;69.70;;;30.08;;
29416;SDS011;28421;51.030;4.006;2022-12-17T19:13:35;67.57;;;29.30;;
29416;SDS011;28421;51.030;4.006;2022-12-17T19:16:08;68.05;;;29.52;;
29416;SDS011;28421;51.030;4.006;2022-12-17T19:18:37;65.53;;;29.58;;
29416;SDS011;28421;51.030;4.006;2022-12-17T19:21:03;68.55;;;29.73;;
29416;SDS011;28421;51.030;4.006;2022-12-17T19:23:30;69.45;;;30.95;;
29416;SDS011;28421;51.030;4.006;2022-12-17T19:26:03;62.17;;;27.98;;
29416;SDS011;28421;51.030;4.006;2022-12-17T19:28:30;67.38;;;29.65;;
29416;SDS011;28421;51.030;4.006;2022-12-17T19:30:55;59.67;;;28.27;;
29416;SDS011;28421;51.030;4.006;2022-12-17T19:33:21;72.00;;;30.63;;
29416;SDS011;28421;51.030;4.006;2022-12-17T19:35:47;67.95;;;28.65;;
29416;SDS011;28421;51.030;4.006;2022-12-17T19:38:12;66.50;;;29.45;;
29416;SDS011;28421;51.030;4.006;2022-12-17T19:40:38;58.30;;;25.88;;
29416;SDS011;28421;51.030;4.006;2022-12-17T19:43:04;65.63;;;27.90;;
29416;SDS011;28421;51.030;4.006;2022-12-17T19:45:30;60.38;;;27.83;;
29416;SDS011;28421;51.030;4.006;2022-12-17T19:47:56;65.85;;;29.70;;
29416;SDS011;28421;51.030;4.006;2022-12-17T19:50:21;59.15;;;27.70;;
29416;SDS011;28421;51.030;4.006;2022-12-17T19:52:47;69.32;;;29.60;;
29416;SDS011;28421;51.030;4.006;2022-12-17T19:55:13;55.38;;;26.23;;
29416;SDS011;28421;51.030;4.006;2022-12-17T19:57:40;67.97;;;29.60;;
29416;SDS011;28421;51.030;4.006;2022-12-17T20:00:05;62.90;;;28.58;;
29416;SDS011;28421;51.030;4.006;2022-12-17T20:02:37;70.18;;;28.58;;
29416;SDS011;28421;51.030;4.006;2022-12-17T20:05:03;66.35;;;29.10;;
29416;SDS011;28421;51.030;4.006;2022-12-17T20:07:29;62.63;;;27.58;;
29416;SDS011;28421;51.030;4.006;2022-12-17T20:09:54;68.50;;;29.77;;
29416;SDS011;28421;51.030;4.006;2022-12-17T20:12:19;58.70;;;26.15;;
29416;SDS011;28421;51.030;4.006;2022-12-17T20:14:45;67.30;;;30.60;;
29416;SDS011;28421;51.030;4.006;2022-12-17T20:17:10;74.38;;;30.90;;
29416;SDS011;28421;51.030;4.006;2022-12-17T20:19:36;66.97;;;29.92;;
29416;SDS011;28421;51.030;4.006;2022-12-17T20:22:02;65.93;;;30.10;;
29416;SDS011;28421;51.030;4.006;2022-12-17T20:24:29;77.55;;;31.23;;
29416;SDS011;28421;51.030;4.006;2022-12-17T20:26:54;74.90;;;29.98;;
29416;SDS011;28421;51.030;4.006;2022-12-17T20:29:21;63.80;;;27.50;;
29416;SDS011;28421;51.030;4.006;2022-12-17T20:31:49;68.97;;;33.00;;
29416;SDS011;28421;51.030;4.006;2022-12-17T20:34:16;66.85;;;28.65;;
29416;SDS011;28421;51.030;4.006;2022-12-17T20:36:43;68.55;;;29.13;;
29416;SDS011;28421;51.030;4.006;2022-12-17T20:39:09;64.80;;;30.58;;
29416;SDS011;28421;51.030;4.006;2022-12-17T20:41:35;63.47;;;31.15;;
29416;SDS011;28421;51.030;4.006;2022-12-17T20:44:02;58.40;;;28.50;;
29416;SDS011;28421;51.030;4.006;2022-12-17T20:46:30;58.55;;;27.60;;
29416;SDS011;28421;51.030;4.006;2022-12-17T20:48:57;71.93;;;28.48;;
29416;SDS011;28421;51.030;4.006;2022-12-17T20:51:24;63.97;;;28.60;;
29416;SDS011;28421;51.030;4.006;2022-12-17T20:53:51;63.63;;;29.42;;
29416;SDS011;28421;51.030;4.006;2022-12-17T20:56:21;64.93;;;28.90;;
29416;SDS011;28421;51.030;4.006;2022-12-17T20:58:51;68.70;;;28.20;;
29416;SDS011;28421;51.030;4.006;2022-12-17T21:01:18;61.05;;;27.98;;
29416;SDS011;28421;51.030;4.006;2022-12-17T21:03:45;62.00;;;28.52;;
29416;SDS011;28421;51.030;4.006;2022-12-17T21:06:12;56.08;;;27.50;;
29416;SDS011;28421;51.030;4.006;2022-12-17T21:08:40;66.03;;;28.55;;
29416;SDS011;28421;51.030;4.006;2022-12-17T21:11:07;73.55;;;29.23;;
29416;SDS011;28421;51.030;4.006;2022-12-17T21:13:34;56.58;;;27.15;;
29416;SDS011;28421;51.030;4.006;2022-12-17T21:16:01;63.95;;;28.67;;
29416;SDS011;28421;51.030;4.006;2022-12-17T21:18:46;61.63;;;29.50;;
29416;SDS011;28421;51.030;4.006;2022-12-17T21:21:13;69.88;;;30.75;;
29416;SDS011;28421;51.030;4.006;2022-12-17T21:23:42;58.70;;;26.30;;
29416;SDS011;28421;51.030;4.006;2022-12-17T21:28:39;66.63;;;26.60;;
29416;SDS011;28421;51.030;4.006;2022-12-17T21:33:44;62.63;;;28.42;;
29416;SDS011;28421;51.030;4.006;2022-12-17T21:36:11;62.30;;;25.85;;
29416;SDS011;28421;51.030;4.006;2022-12-17T21:38:37;56.50;;;26.25;;
29416;SDS011;28421;51.030;4.006;2022-12-17T21:41:04;59.22;;;25.95;;
29416;SDS011;28421;51.030;4.006;2022-12-17T21:43:31;57.08;;;26.30;;
29416;SDS011;28421;51.030;4.006;2022-12-17T21:45:57;62.13;;;27.13;;
29416;SDS011;28421;51.030;4.006;2022-12-17T21:48:23;55.55;;;24.52;;
29416;SDS011;28421;51.030;4.006;2022-12-17T21:50:48;54.28;;;27.05;;
29416;SDS011;28421;51.030;4.006;2022-12-17T21:53:14;65.20;;;25.15;;
29416;SDS011;28421;51.030;4.006;2022-12-17T21:55:39;59.30;;;28.17;;
29416;SDS011;28421;51.030;4.006;2022-12-17T21:58:06;66.03;;;25.85;;
29416;SDS011;28421;51.030;4.006;2022-12-17T22:00:32;56.55;;;24.27;;
